createdAt,value
2023-05-18T00:00:31.159Z,-57
2023-05-18T00:03:02.202Z,-57
2023-05-18T00:05:34.048Z,-56
2023-05-18T00:08:02.349Z,-57
2023-05-18T00:10:31.450Z,-55
2023-05-18T00:12:59.593Z,-57
2023-05-18T00:15:28.006Z,-57
2023-05-18T00:17:57.062Z,-51
2023-05-18T00:20:27.559Z,-54
2023-05-18T00:22:56.056Z,-54
2023-05-18T00:25:24.565Z,-55
2023-05-18T00:27:52.861Z,-57
2023-05-18T00:30:21.475Z,-55
2023-05-18T00:32:49.685Z,-55
2023-05-18T00:35:17.863Z,-54
2023-05-18T00:37:47.379Z,-56
2023-05-18T00:40:15.624Z,-56
2023-05-18T00:42:43.896Z,-58
2023-05-18T00:45:12.679Z,-58
2023-05-18T00:47:41.060Z,-57
2023-05-18T00:50:10.240Z,-56
2023-05-18T00:52:39.878Z,-55
2023-05-18T00:55:13.119Z,-58
2023-05-18T00:57:44.607Z,-55
2023-05-18T01:00:14.770Z,-55
2023-05-18T01:02:45.687Z,-52
2023-05-18T01:05:14.405Z,-56
2023-05-18T01:07:43.780Z,-57
2023-05-18T01:10:16.637Z,-57
2023-05-18T01:12:52.033Z,-58
2023-05-18T01:15:24.560Z,-55
2023-05-18T01:18:10.258Z,-56
2023-05-18T01:20:47.384Z,-56
2023-05-18T01:24:05.941Z,-54
2023-05-18T01:26:41.278Z,-55
2023-05-18T01:29:13.963Z,-56
2023-05-18T01:31:42.483Z,-58
2023-05-18T01:34:10.851Z,-55
2023-05-18T01:36:39.142Z,-54
2023-05-18T01:39:07.654Z,-55
2023-05-18T01:41:42.723Z,-55
2023-05-18T01:44:18.894Z,-53
2023-05-18T01:47:00.590Z,-57
2023-05-18T01:49:36.661Z,-56
2023-05-18T01:52:10.606Z,-54
2023-05-18T01:54:45.516Z,-56
2023-05-18T01:57:17.451Z,-53
2023-05-18T01:59:46.063Z,-53
2023-05-18T02:02:14.876Z,-55
2023-05-18T02:04:43.161Z,-55
2023-05-18T02:07:11.396Z,-56
2023-05-18T02:09:39.553Z,-55
2023-05-18T02:12:08.983Z,-53
2023-05-18T02:14:38.740Z,-54
2023-05-18T02:17:07.683Z,-56
2023-05-18T02:19:38.371Z,-55
2023-05-18T02:22:08.166Z,-57
2023-05-18T02:24:36.452Z,-57
2023-05-18T02:27:06.246Z,-57
2023-05-18T02:29:34.403Z,-54
2023-05-18T02:32:04.276Z,-52
2023-05-18T02:34:33.829Z,-56
2023-05-18T02:37:04.030Z,-52
2023-05-18T02:39:33.855Z,-56
2023-05-18T02:42:02.102Z,-57
2023-05-18T02:44:30.230Z,-54
2023-05-18T02:46:58.453Z,-55
2023-05-18T02:49:28.386Z,-53
2023-05-18T02:51:56.553Z,-55
2023-05-18T02:54:24.711Z,-56
2023-05-18T02:56:56.820Z,-54
2023-05-18T02:59:25.489Z,-53
2023-05-18T03:01:53.659Z,-57
2023-05-18T03:04:25.709Z,-56
2023-05-18T03:06:57.207Z,-56
2023-05-18T03:09:25.659Z,-57
2023-05-18T03:11:53.865Z,-55
2023-05-18T03:14:22.028Z,-56
2023-05-18T03:16:53.722Z,-59
2023-05-18T03:19:22.006Z,-55
2023-05-18T03:21:50.214Z,-53
2023-05-18T03:24:20.317Z,-58
2023-05-18T03:26:48.554Z,-57
2023-05-18T03:29:16.716Z,-56
2023-05-18T03:31:44.949Z,-56
2023-05-18T03:34:13.254Z,-56
2023-05-18T03:36:42.461Z,-57
2023-05-18T03:39:10.610Z,-54
2023-05-18T03:41:40.157Z,-55
2023-05-18T03:44:08.359Z,-57
2023-05-18T03:46:36.790Z,-57
2023-05-18T03:49:07.690Z,-54
2023-05-18T03:51:35.927Z,-52
2023-05-18T03:54:04.054Z,-55
2023-05-18T03:56:32.340Z,-55
2023-05-18T03:59:01.905Z,-54
2023-05-18T04:01:32.750Z,-57
2023-05-18T04:04:01.418Z,-54
2023-05-18T04:06:30.021Z,-55
2023-05-18T04:09:02.628Z,-55
2023-05-18T04:11:30.908Z,-56
2023-05-18T04:14:00.875Z,-58
2023-05-18T04:16:31.188Z,-56
2023-05-18T04:19:00.453Z,-55
2023-05-18T04:21:35.428Z,-56
2023-05-18T04:24:04.843Z,-55
2023-05-18T04:26:34.644Z,-57
2023-05-18T04:29:03.011Z,-54
2023-05-18T04:31:32.580Z,-56
2023-05-18T04:34:00.758Z,-53
2023-05-18T04:36:30.915Z,-57
2023-05-18T04:38:59.785Z,-57
2023-05-18T04:41:28.225Z,-56
2023-05-18T04:43:56.283Z,-56
2023-05-18T04:46:24.480Z,-56
2023-05-18T04:48:57.863Z,-57
2023-05-18T04:51:26.355Z,-56
2023-05-18T04:53:55.721Z,-56
2023-05-18T04:56:23.905Z,-56
2023-05-18T04:58:52.047Z,-55
2023-05-18T05:01:20.389Z,-58
2023-05-18T05:03:48.602Z,-57
2023-05-18T05:06:18.169Z,-57
2023-05-18T05:08:46.315Z,-58
2023-05-18T05:11:14.463Z,-56
2023-05-18T05:13:42.557Z,-54
2023-05-18T05:16:10.780Z,-57
2023-05-18T05:18:38.840Z,-55
2023-05-18T05:21:07.669Z,-57
2023-05-18T05:23:37.265Z,-59
2023-05-18T05:26:06.119Z,-57
2023-05-18T05:28:34.265Z,-56
2023-05-18T05:31:02.375Z,-56
2023-05-18T05:33:30.673Z,-58
2023-05-18T05:35:58.992Z,-55
2023-05-18T05:38:27.155Z,-58
2023-05-18T05:40:56.583Z,-56
2023-05-18T05:43:24.847Z,-57
2023-05-18T05:45:53.032Z,-58
2023-05-18T05:48:21.339Z,-56
2023-05-18T05:50:49.610Z,-58
2023-05-18T05:53:19.737Z,-58
2023-05-18T05:55:47.968Z,-57
2023-05-18T05:58:17.475Z,-58
2023-05-18T06:00:47.076Z,-57
2023-05-18T06:03:15.283Z,-57
2023-05-18T06:05:43.394Z,-55
2023-05-18T06:08:11.743Z,-56
2023-05-18T06:10:41.402Z,-56
2023-05-18T06:13:09.726Z,-56
2023-05-18T06:15:39.100Z,-56
2023-05-18T06:18:07.375Z,-54
2023-05-18T06:20:35.665Z,-57
2023-05-18T06:23:03.702Z,-56
2023-05-18T06:25:32.047Z,-58
2023-05-18T06:28:00.342Z,-55
2023-05-18T06:30:28.523Z,-57
2023-05-18T06:32:58.125Z,-57
2023-05-18T06:35:26.346Z,-57
2023-05-18T06:37:54.487Z,-55
2023-05-18T06:40:22.568Z,-70
2023-05-18T06:42:50.666Z,-70
2023-05-18T06:45:19.378Z,-70
2023-05-18T06:47:48.495Z,-72
2023-05-18T06:50:18.041Z,-69
2023-05-18T06:52:46.252Z,-71
2023-05-18T06:55:15.268Z,-70
2023-05-18T06:57:43.370Z,-71
2023-05-18T07:00:13.381Z,-70
2023-05-18T07:02:43.292Z,-70
2023-05-18T07:05:11.394Z,-69
2023-05-18T07:07:41.012Z,-70
2023-05-18T07:10:10.383Z,-70
2023-05-18T07:12:38.470Z,-70
2023-05-18T07:15:08.371Z,-69
2023-05-18T07:17:36.569Z,-71
2023-05-18T07:20:06.327Z,-70
2023-05-18T07:22:34.440Z,-70
2023-05-18T07:25:04.039Z,-70
2023-05-18T07:27:33.206Z,-70
2023-05-18T07:30:01.335Z,-70
2023-05-18T07:32:29.457Z,-69
2023-05-18T07:34:57.574Z,-69
2023-05-18T07:37:25.925Z,-69
2023-05-18T07:39:54.005Z,-69
2023-05-18T07:42:23.495Z,-70
2023-05-18T07:44:52.172Z,-70
2023-05-18T07:47:21.434Z,-69
2023-05-18T07:49:49.762Z,-70
2023-05-18T07:52:17.877Z,-70
2023-05-18T07:54:46.009Z,-70
2023-05-18T07:57:14.295Z,-70
2023-05-18T07:59:43.798Z,-70
2023-05-18T08:02:11.884Z,-70
2023-05-18T08:04:39.995Z,-70
2023-05-18T08:07:08.934Z,-70
2023-05-18T08:09:37.022Z,-70
2023-05-18T08:12:06.156Z,-70
2023-05-18T08:14:34.231Z,-69
2023-05-18T08:17:05.039Z,-71
2023-05-18T08:19:33.151Z,-71
2023-05-18T08:22:01.223Z,-72
2023-05-18T08:24:29.364Z,-74
2023-05-18T08:26:57.576Z,-71
2023-05-18T08:29:25.675Z,-73
2023-05-18T08:31:53.788Z,-73
2023-05-18T08:34:23.281Z,-72
2023-05-18T08:36:52.431Z,-71
2023-05-18T08:39:22.414Z,-71
2023-05-18T08:41:58.564Z,-71
2023-05-18T08:44:39.686Z,-69
2023-05-18T08:47:11.507Z,-70
2023-05-18T08:49:43.380Z,-72
2023-05-18T08:52:18.985Z,-71
2023-05-18T08:54:49.191Z,-71
2023-05-18T08:57:23.160Z,-73
2023-05-18T08:59:55.413Z,-75
2023-05-18T09:02:25.213Z,-74
2023-05-18T09:04:57.688Z,-77
2023-05-18T09:07:27.498Z,-74
2023-05-18T09:09:58.888Z,-74
2023-05-18T09:12:29.335Z,-78
2023-05-18T09:15:00.795Z,-76
2023-05-18T09:17:28.901Z,-74
2023-05-18T09:19:58.525Z,-74
2023-05-18T09:22:26.829Z,-74
2023-05-18T09:24:55.196Z,-74
2023-05-18T09:27:24.794Z,-72
2023-05-18T09:29:54.480Z,-73
2023-05-18T09:32:23.042Z,-71
2023-05-18T09:34:51.591Z,-75
2023-05-18T09:37:22.598Z,-73
2023-05-18T09:40:00.902Z,-73
2023-05-18T09:42:36.945Z,-73
2023-05-18T09:45:05.789Z,-76
2023-05-18T09:47:35.402Z,-57
2023-05-18T09:50:03.624Z,-55
2023-05-18T09:52:42.237Z,-53
2023-05-18T09:55:11.617Z,-55
2023-05-18T09:57:44.349Z,-54
2023-05-18T10:00:15.545Z,-56
2023-05-18T10:02:49.298Z,-56
2023-05-18T10:05:23.037Z,-54
2023-05-18T10:07:54.527Z,-55
2023-05-18T10:10:26.429Z,-54
2023-05-18T10:12:55.957Z,-56
2023-05-18T10:15:25.310Z,-56
2023-05-18T10:17:58.218Z,-55
2023-05-18T10:20:27.483Z,-54
2023-05-18T10:23:01.737Z,-56
2023-05-18T10:25:31.682Z,-55
2023-05-18T10:28:07.722Z,-59
2023-05-18T10:30:37.014Z,-57
2023-05-18T10:33:14.063Z,-58
2023-05-18T10:35:51.101Z,-60
2023-05-18T10:38:23.652Z,-58
2023-05-18T10:40:55.657Z,-58
2023-05-18T10:43:27.434Z,-54
2023-05-18T10:45:59.295Z,-54
2023-05-18T10:48:30.150Z,-57
2023-05-18T10:50:59.459Z,-59
2023-05-18T10:53:29.905Z,-57
2023-05-18T10:55:58.074Z,-75
2023-05-18T10:58:30.411Z,-76
2023-05-18T11:01:03.112Z,-75
2023-05-18T11:03:33.967Z,-73
2023-05-18T11:06:08.709Z,-75
2023-05-18T11:08:45.412Z,-71
2023-05-18T11:11:13.989Z,-74
2023-05-18T11:13:48.695Z,-73
2023-05-18T11:16:18.288Z,-74
2023-05-18T11:18:49.918Z,-74
2023-05-18T11:21:51.574Z,-74
2023-05-18T11:24:35.496Z,-73
2023-05-18T11:27:15.808Z,-74
2023-05-18T11:29:46.490Z,-71
2023-05-18T11:32:30.595Z,-72
2023-05-18T11:35:00.326Z,-74
2023-05-18T11:37:50.879Z,-74
2023-05-18T11:40:48.435Z,-73
2023-05-18T11:43:23.739Z,-73
2023-05-18T11:45:58.943Z,-76
2023-05-18T11:48:30.391Z,-75
2023-05-18T11:50:58.847Z,-75
2023-05-18T11:53:28.233Z,-74
2023-05-18T11:55:57.722Z,-74
2023-05-18T11:58:26.946Z,-75
2023-05-18T12:00:58.033Z,-76
2023-05-18T12:03:27.782Z,-75
2023-05-18T12:06:01.799Z,-74
2023-05-18T12:08:30.587Z,-74
2023-05-18T12:11:02.366Z,-74
2023-05-18T12:13:31.455Z,-74
2023-05-18T12:16:00.734Z,-74
2023-05-18T12:18:30.422Z,-74
2023-05-18T12:20:58.576Z,-74
2023-05-18T12:23:38.198Z,-74
2023-05-18T12:26:08.366Z,-74
2023-05-18T12:28:37.216Z,-74
2023-05-18T12:31:08.398Z,-66
2023-05-18T12:33:36.629Z,-66
2023-05-18T12:36:10.723Z,-66
2023-05-18T12:38:38.916Z,-66
2023-05-18T12:41:08.754Z,-66
2023-05-18T12:43:37.370Z,-67
2023-05-18T12:46:06.482Z,-69
2023-05-18T12:48:38.565Z,-69
2023-05-18T12:51:07.975Z,-68
2023-05-18T12:53:43.858Z,-71
2023-05-18T12:56:13.983Z,-71
2023-05-18T12:58:44.488Z,-71
2023-05-18T13:01:12.852Z,-70
2023-05-18T13:03:42.258Z,-70
2023-05-18T13:06:10.868Z,-70
2023-05-18T13:08:39.063Z,-71
2023-05-18T13:11:14.688Z,-71
2023-05-18T13:14:04.390Z,-70
2023-05-18T13:16:34.725Z,-71
2023-05-18T13:19:06.916Z,-72
2023-05-18T13:21:36.163Z,-70
2023-05-18T13:24:05.497Z,-70
2023-05-18T13:26:33.613Z,-70
2023-05-18T13:29:03.072Z,-71
2023-05-18T13:31:31.229Z,-70
2023-05-18T13:33:59.340Z,-71
2023-05-18T13:36:29.520Z,-71
2023-05-18T13:38:57.661Z,-71
2023-05-18T13:41:25.777Z,-70
2023-05-18T13:43:53.868Z,-70
2023-05-18T13:46:23.358Z,-71
2023-05-18T13:48:51.729Z,-72
2023-05-18T13:51:19.825Z,-71
2023-05-18T13:53:47.909Z,-71
2023-05-18T13:56:16.436Z,-71
2023-05-18T13:58:44.712Z,-70
2023-05-18T14:01:14.072Z,-70
2023-05-18T14:03:43.631Z,-70
2023-05-18T14:06:11.777Z,-72
2023-05-18T14:08:39.895Z,-70
2023-05-18T14:11:07.940Z,-72
2023-05-18T14:13:36.020Z,-71
2023-05-18T14:16:04.113Z,-71
2023-05-18T14:18:32.181Z,-71
2023-05-18T14:21:03.436Z,-71
2023-05-18T14:23:31.609Z,-71
2023-05-18T14:25:59.712Z,-70
2023-05-18T14:28:27.847Z,-71
2023-05-18T14:30:55.998Z,-72
2023-05-18T14:33:24.167Z,-70
2023-05-18T14:35:52.258Z,-70
2023-05-18T14:38:21.718Z,-70
2023-05-18T14:40:49.812Z,-71
2023-05-18T14:43:17.853Z,-71
2023-05-18T14:45:50.651Z,-71
2023-05-18T14:48:24.993Z,-71
2023-05-18T14:50:53.105Z,-72
2023-05-18T14:53:22.509Z,-70
2023-05-18T14:55:50.751Z,-71
2023-05-18T14:58:18.804Z,-70
2023-05-18T15:00:46.895Z,-71
2023-05-18T15:03:15.060Z,-72
2023-05-18T15:05:44.346Z,-69
2023-05-18T15:08:12.411Z,-72
2023-05-18T15:10:41.885Z,-70
2023-05-18T15:13:09.996Z,-69
2023-05-18T15:15:38.093Z,-72
2023-05-18T15:18:06.520Z,-70
2023-05-18T15:20:34.671Z,-72
2023-05-18T15:23:02.795Z,-71
2023-05-18T15:25:30.996Z,-71
2023-05-18T15:28:00.429Z,-71
2023-05-18T15:30:29.986Z,-71
2023-05-18T15:32:58.652Z,-70
2023-05-18T15:35:26.784Z,-71
2023-05-18T15:37:54.857Z,-71
2023-05-18T15:40:23.252Z,-70
2023-05-18T15:42:51.571Z,-56
2023-05-18T15:45:21.238Z,-56
2023-05-18T15:47:49.354Z,-56
2023-05-18T15:50:17.506Z,-55
2023-05-18T15:52:45.703Z,-56
2023-05-18T15:55:13.810Z,-55
2023-05-18T15:57:42.060Z,-59
2023-05-18T16:03:05.793Z,-56
2023-05-18T16:05:34.137Z,-59
2023-05-18T16:08:02.345Z,-56
2023-05-18T16:10:30.752Z,-58
2023-05-18T16:13:05.443Z,-54
2023-05-18T16:15:39.211Z,-57
2023-05-18T16:18:09.100Z,-57
2023-05-18T16:20:37.418Z,-56
2023-05-18T16:23:05.604Z,-55
2023-05-18T16:25:33.794Z,-55
2023-05-18T16:28:01.991Z,-57
2023-05-18T16:30:30.485Z,-57
2023-05-18T16:32:58.929Z,-56
2023-05-18T16:35:30.869Z,-55
2023-05-18T16:37:59.062Z,-57
2023-05-18T16:40:27.275Z,-57
2023-05-18T16:42:55.593Z,-55
2023-05-18T16:45:25.174Z,-58
2023-05-18T16:47:54.632Z,-55
2023-05-18T16:50:22.862Z,-56
2023-05-18T16:52:52.401Z,-57
2023-05-18T16:55:20.981Z,-57
2023-05-18T16:57:49.158Z,-71
2023-05-18T17:00:18.425Z,-72
2023-05-18T17:02:47.107Z,-71
2023-05-18T17:05:17.112Z,-71
2023-05-18T17:07:45.765Z,-71
2023-05-18T17:10:15.335Z,-72
2023-05-18T17:12:43.538Z,-71
2023-05-18T17:15:12.917Z,-71
2023-05-18T17:17:42.306Z,-71
2023-05-18T17:20:12.769Z,-70
2023-05-18T17:22:41.233Z,-58
2023-05-18T17:25:10.900Z,-58
2023-05-18T17:27:40.431Z,-58
2023-05-18T17:30:10.037Z,-57
2023-05-18T17:32:38.954Z,-56
2023-05-18T17:35:10.655Z,-57
2023-05-18T17:37:40.467Z,-59
2023-05-18T17:40:10.920Z,-56
2023-05-18T17:42:40.582Z,-56
2023-05-18T17:45:10.382Z,-56
2023-05-18T17:47:39.182Z,-57
2023-05-18T17:50:09.075Z,-55
2023-05-18T17:52:37.180Z,-57
2023-05-18T17:55:06.208Z,-59
2023-05-18T17:57:34.403Z,-57
2023-05-18T18:00:06.124Z,-56
2023-05-18T18:02:34.192Z,-55
2023-05-18T18:05:02.277Z,-55
2023-05-18T18:07:30.472Z,-54
2023-05-18T18:09:59.113Z,-56
2023-05-18T18:12:27.296Z,-57
2023-05-18T18:14:55.496Z,-52
2023-05-18T18:17:25.016Z,-55
2023-05-18T18:19:53.133Z,-56
2023-05-18T18:22:21.276Z,-53
2023-05-18T18:24:49.465Z,-54
2023-05-18T18:27:19.320Z,-54
2023-05-18T18:29:48.830Z,-52
2023-05-18T18:32:17.023Z,-59
2023-05-18T18:34:46.544Z,-57
2023-05-18T18:37:14.700Z,-57
2023-05-18T18:39:42.906Z,-54
2023-05-18T18:42:11.661Z,-53
2023-05-18T18:44:39.876Z,-55
2023-05-18T18:47:08.104Z,-54
2023-05-18T18:49:36.229Z,-56
2023-05-18T18:52:06.879Z,-55
2023-05-18T18:54:34.988Z,-58
2023-05-18T18:57:04.438Z,-55
2023-05-18T18:59:34.703Z,-56
2023-05-18T19:02:02.956Z,-56
2023-05-18T19:04:31.295Z,-57
2023-05-18T19:07:03.370Z,-57
2023-05-18T19:09:34.842Z,-58
2023-05-18T19:12:03.128Z,-54
2023-05-18T19:14:32.303Z,-58
2023-05-18T19:17:00.541Z,-56
2023-05-18T19:19:29.593Z,-57
2023-05-18T19:21:57.861Z,-58
2023-05-18T19:24:26.010Z,-59
2023-05-18T19:26:55.556Z,-53
2023-05-18T19:29:24.877Z,-57
2023-05-18T19:31:55.636Z,-57
2023-05-18T19:34:24.325Z,-56
2023-05-18T19:36:53.028Z,-54
2023-05-18T19:39:21.193Z,-57
2023-05-18T19:41:49.378Z,-58
2023-05-18T19:44:18.852Z,-58
2023-05-18T19:46:46.990Z,-54
2023-05-18T19:49:15.105Z,-56
2023-05-18T19:51:43.269Z,-57
2023-05-18T19:54:11.860Z,-55
2023-05-18T19:56:40.004Z,-54
2023-05-18T19:59:08.154Z,-57
2023-05-18T20:01:37.729Z,-58
2023-05-18T20:04:06.303Z,-60
2023-05-18T20:06:34.898Z,-55
2023-05-18T20:09:03.062Z,-58
2023-05-18T20:11:31.260Z,-57
2023-05-18T20:13:59.294Z,-56
2023-05-18T20:16:29.022Z,-54
2023-05-18T20:18:59.503Z,-54
2023-05-18T20:21:28.135Z,-55
2023-05-18T20:23:56.224Z,-57
2023-05-18T20:26:26.679Z,-57
2023-05-18T20:28:55.089Z,-55
2023-05-18T20:31:23.249Z,-54
2023-05-18T20:33:53.848Z,-54
2023-05-18T20:36:23.410Z,-57
2023-05-18T20:38:52.722Z,-53
2023-05-18T20:41:23.170Z,-58
2023-05-18T20:43:51.317Z,-55
2023-05-18T20:46:23.782Z,-55
2023-05-18T20:48:54.834Z,-56
2023-05-18T20:51:24.707Z,-56
2023-05-18T20:53:52.971Z,-55
2023-05-18T20:56:21.792Z,-54
2023-05-18T20:58:50.290Z,-55
2023-05-18T21:01:18.858Z,-58
2023-05-18T21:03:47.742Z,-55
2023-05-18T21:06:15.969Z,-56
2023-05-18T21:08:45.664Z,-57
2023-05-18T21:11:13.795Z,-54
2023-05-18T21:13:41.934Z,-54
2023-05-18T21:16:10.737Z,-51
2023-05-18T21:18:38.900Z,-56
2023-05-18T21:21:07.164Z,-58
2023-05-18T21:23:35.375Z,-55
2023-05-18T21:26:05.044Z,-57
2023-05-18T21:28:33.166Z,-56
2023-05-18T21:31:01.255Z,-54
2023-05-18T21:33:29.593Z,-57
2023-05-18T21:35:58.694Z,-55
2023-05-18T21:38:26.835Z,-56
2023-05-18T21:40:56.970Z,-52
2023-05-18T21:43:26.610Z,-55
2023-05-18T21:45:54.927Z,-54
2023-05-18T21:48:23.211Z,-53
2023-05-18T21:50:51.335Z,-50
2023-05-18T21:53:20.127Z,-54
2023-05-18T21:55:48.446Z,-54
2023-05-18T21:58:16.559Z,-55
2023-05-18T22:00:46.186Z,-53
2023-05-18T22:03:14.409Z,-57
2023-05-18T22:05:44.626Z,-50
2023-05-18T22:08:12.855Z,-52
2023-05-18T22:10:41.565Z,-55
2023-05-18T22:13:10.111Z,-56
2023-05-18T22:15:40.142Z,-55
2023-05-18T22:18:11.368Z,-54
2023-05-18T22:20:40.312Z,-56
2023-05-18T22:23:09.092Z,-56
2023-05-18T22:25:37.357Z,-55
2023-05-18T22:28:05.746Z,-53
2023-05-18T22:30:34.092Z,-54
2023-05-18T22:33:03.311Z,-51
2023-05-18T22:35:32.917Z,-57
2023-05-18T22:38:01.132Z,-55
2023-05-18T22:40:29.550Z,-56
2023-05-18T22:42:58.078Z,-52
2023-05-18T22:45:26.418Z,-54
2023-05-18T22:47:54.578Z,-56
2023-05-18T22:50:22.794Z,-55
2023-05-18T22:52:52.489Z,-55
2023-05-18T22:55:21.066Z,-55
2023-05-18T22:57:49.267Z,-52
2023-05-18T23:00:19.491Z,-54
2023-05-18T23:02:47.660Z,-52
2023-05-18T23:05:16.403Z,-55
2023-05-18T23:07:44.557Z,-54
2023-05-18T23:10:14.478Z,-53
2023-05-18T23:12:42.643Z,-53
2023-05-18T23:15:11.867Z,-54
2023-05-18T23:17:40.058Z,-51
2023-05-18T23:20:11.476Z,-56
2023-05-18T23:22:39.723Z,-54
2023-05-18T23:25:09.901Z,-54
2023-05-18T23:27:39.396Z,-54
2023-05-18T23:30:08.982Z,-54
2023-05-18T23:32:38.098Z,-56
2023-05-18T23:35:08.622Z,-53
2023-05-18T23:37:42.163Z,-54
2023-05-18T23:40:13.136Z,-56
2023-05-18T23:42:43.518Z,-55
2023-05-18T23:45:13.614Z,-54
2023-05-18T23:47:42.580Z,-56
2023-05-18T23:50:12.334Z,-54
2023-05-18T23:52:42.393Z,-55
2023-05-18T23:55:13.394Z,-55
2023-05-18T23:57:43.833Z,-54
